sensor_id;sensor_type;location;lat;lon;timestamp;temperature;humidity
42147;DHT22;27815;43.410;11.852;2023-07-13T00:01:01;28.00;39.90
42147;DHT22;27815;43.410;11.852;2023-07-13T00:05:04;28.00;40.00
42147;DHT22;27815;43.410;11.852;2023-07-13T00:09:07;28.00;40.00
42147;DHT22;27815;43.410;11.852;2023-07-13T00:13:10;28.00;39.90
42147;DHT22;27815;43.410;11.852;2023-07-13T00:17:13;28.00;40.10
42147;DHT22;27815;43.410;11.852;2023-07-13T00:21:16;27.80;40.50
42147;DHT22;27815;43.410;11.852;2023-07-13T00:25:23;27.20;41.30
42147;DHT22;27815;43.410;11.852;2023-07-13T00:29:30;26.80;42.10
42147;DHT22;27815;43.410;11.852;2023-07-13T00:33:36;26.60;42.30
42147;DHT22;27815;43.410;11.852;2023-07-13T00:37:40;26.70;42.20
42147;DHT22;27815;43.410;11.852;2023-07-13T00:41:43;26.70;42.20
42147;DHT22;27815;43.410;11.852;2023-07-13T00:49:50;26.90;41.90
42147;DHT22;27815;43.410;11.852;2023-07-13T00:53:56;27.00;41.60
42147;DHT22;27815;43.410;11.852;2023-07-13T00:58:01;27.10;41.40
42147;DHT22;27815;43.410;11.852;2023-07-13T01:02:07;27.20;41.20
42147;DHT22;27815;43.410;11.852;2023-07-13T01:06:11;27.30;41.20
42147;DHT22;27815;43.410;11.852;2023-07-13T01:10:14;27.30;41.20
42147;DHT22;27815;43.410;11.852;2023-07-13T01:14:17;27.30;41.20
42147;DHT22;27815;43.410;11.852;2023-07-13T01:18:23;27.30;41.10
42147;DHT22;27815;43.410;11.852;2023-07-13T01:22:29;27.40;41.00
42147;DHT22;27815;43.410;11.852;2023-07-13T01:26:35;27.40;41.10
42147;DHT22;27815;43.410;11.852;2023-07-13T01:30:38;27.40;41.10
42147;DHT22;27815;43.410;11.852;2023-07-13T01:34:43;27.40;41.20
42147;DHT22;27815;43.410;11.852;2023-07-13T01:38:46;27.40;41.20
42147;DHT22;27815;43.410;11.852;2023-07-13T01:42:49;27.40;41.20
42147;DHT22;27815;43.410;11.852;2023-07-13T01:46:56;27.40;41.30
42147;DHT22;27815;43.410;11.852;2023-07-13T01:50:59;27.40;41.30
42147;DHT22;27815;43.410;11.852;2023-07-13T01:55:02;27.40;41.40
42147;DHT22;27815;43.410;11.852;2023-07-13T01:59:06;27.40;41.60
42147;DHT22;27815;43.410;11.852;2023-07-13T02:03:08;27.40;41.70
42147;DHT22;27815;43.410;11.852;2023-07-13T02:07:11;27.30;41.90
42147;DHT22;27815;43.410;11.852;2023-07-13T02:11:14;27.30;42.20
42147;DHT22;27815;43.410;11.852;2023-07-13T02:15:18;27.30;42.30
42147;DHT22;27815;43.410;11.852;2023-07-13T02:19:21;27.30;42.50
42147;DHT22;27815;43.410;11.852;2023-07-13T02:23:24;27.20;42.70
42147;DHT22;27815;43.410;11.852;2023-07-13T02:27:27;27.20;42.80
42147;DHT22;27815;43.410;11.852;2023-07-13T02:31:30;27.20;42.80
42147;DHT22;27815;43.410;11.852;2023-07-13T02:35:33;27.20;42.80
42147;DHT22;27815;43.410;11.852;2023-07-13T02:39:37;27.20;42.80
42147;DHT22;27815;43.410;11.852;2023-07-13T02:43:40;27.20;42.80
42147;DHT22;27815;43.410;11.852;2023-07-13T02:47:44;26.80;43.40
42147;DHT22;27815;43.410;11.852;2023-07-13T02:51:47;26.40;43.80
42147;DHT22;27815;43.410;11.852;2023-07-13T02:55:51;26.50;43.80
42147;DHT22;27815;43.410;11.852;2023-07-13T02:59:54;26.50;43.70
42147;DHT22;27815;43.410;11.852;2023-07-13T03:03:58;26.60;43.60
42147;DHT22;27815;43.410;11.852;2023-07-13T03:08:01;26.60;43.60
42147;DHT22;27815;43.410;11.852;2023-07-13T03:12:06;26.30;43.90
42147;DHT22;27815;43.410;11.852;2023-07-13T03:16:12;26.00;44.30
42147;DHT22;27815;43.410;11.852;2023-07-13T03:20:21;25.90;44.50
42147;DHT22;27815;43.410;11.852;2023-07-13T03:24:24;25.70;44.80
42147;DHT22;27815;43.410;11.852;2023-07-13T03:28:29;25.50;45.20
42147;DHT22;27815;43.410;11.852;2023-07-13T03:32:32;25.60;45.50
42147;DHT22;27815;43.410;11.852;2023-07-13T03:36:35;25.90;45.70
42147;DHT22;27815;43.410;11.852;2023-07-13T03:40:42;26.00;45.70
42147;DHT22;27815;43.410;11.852;2023-07-13T03:44:46;26.20;45.90
42147;DHT22;27815;43.410;11.852;2023-07-13T03:48:55;26.40;46.00
42147;DHT22;27815;43.410;11.852;2023-07-13T03:52:59;26.40;45.90
42147;DHT22;27815;43.410;11.852;2023-07-13T03:57:03;26.50;45.90
42147;DHT22;27815;43.410;11.852;2023-07-13T04:01:09;26.50;46.10
42147;DHT22;27815;43.410;11.852;2023-07-13T04:05:13;26.50;46.20
42147;DHT22;27815;43.410;11.852;2023-07-13T04:09:16;26.50;46.40
42147;DHT22;27815;43.410;11.852;2023-07-13T04:13:19;26.60;46.50
42147;DHT22;27815;43.410;11.852;2023-07-13T04:17:22;26.60;46.60
42147;DHT22;27815;43.410;11.852;2023-07-13T04:21:30;26.70;46.80
42147;DHT22;27815;43.410;11.852;2023-07-13T04:25:33;26.70;46.90
42147;DHT22;27815;43.410;11.852;2023-07-13T04:29:36;26.70;47.10
42147;DHT22;27815;43.410;11.852;2023-07-13T04:33:39;26.80;47.20
42147;DHT22;27815;43.410;11.852;2023-07-13T04:37:42;26.80;47.20
42147;DHT22;27815;43.410;11.852;2023-07-13T04:41:45;26.80;47.20
42147;DHT22;27815;43.410;11.852;2023-07-13T04:45:47;26.90;47.20
42147;DHT22;27815;43.410;11.852;2023-07-13T04:49:51;26.90;47.40
42147;DHT22;27815;43.410;11.852;2023-07-13T04:53:53;26.90;47.60
42147;DHT22;27815;43.410;11.852;2023-07-13T04:58:03;26.90;47.90
42147;DHT22;27815;43.410;11.852;2023-07-13T05:02:06;27.00;48.20
42147;DHT22;27815;43.410;11.852;2023-07-13T05:06:09;27.00;48.30
42147;DHT22;27815;43.410;11.852;2023-07-13T05:10:28;27.00;48.50
42147;DHT22;27815;43.410;11.852;2023-07-13T05:14:31;27.10;48.60
42147;DHT22;27815;43.410;11.852;2023-07-13T05:18:34;27.10;48.90
42147;DHT22;27815;43.410;11.852;2023-07-13T05:22:37;27.20;49.20
42147;DHT22;27815;43.410;11.852;2023-07-13T05:26:40;27.20;49.30
42147;DHT22;27815;43.410;11.852;2023-07-13T05:30:47;27.30;49.40
42147;DHT22;27815;43.410;11.852;2023-07-13T05:34:49;27.30;49.60
42147;DHT22;27815;43.410;11.852;2023-07-13T05:38:52;27.40;49.70
42147;DHT22;27815;43.410;11.852;2023-07-13T05:42:55;27.50;49.60
42147;DHT22;27815;43.410;11.852;2023-07-13T05:46:58;27.60;49.50
42147;DHT22;27815;43.410;11.852;2023-07-13T05:51:01;27.70;49.60
42147;DHT22;27815;43.410;11.852;2023-07-13T05:55:05;27.80;49.60
42147;DHT22;27815;43.410;11.852;2023-07-13T05:59:08;27.90;49.40
42147;DHT22;27815;43.410;11.852;2023-07-13T06:03:10;28.00;49.30
42147;DHT22;27815;43.410;11.852;2023-07-13T06:07:14;28.00;49.30
42147;DHT22;27815;43.410;11.852;2023-07-13T06:11:23;28.00;49.40
42147;DHT22;27815;43.410;11.852;2023-07-13T06:15:26;28.00;49.50
42147;DHT22;27815;43.410;11.852;2023-07-13T06:19:29;28.00;49.40
42147;DHT22;27815;43.410;11.852;2023-07-13T06:23:32;28.00;49.10
42147;DHT22;27815;43.410;11.852;2023-07-13T06:27:34;28.10;49.20
42147;DHT22;27815;43.410;11.852;2023-07-13T06:31:37;28.10;49.10
42147;DHT22;27815;43.410;11.852;2023-07-13T06:35:41;28.10;49.10
42147;DHT22;27815;43.410;11.852;2023-07-13T06:39:44;28.20;48.90
42147;DHT22;27815;43.410;11.852;2023-07-13T06:43:47;28.30;48.70
42147;DHT22;27815;43.410;11.852;2023-07-13T06:47:49;28.40;48.50
42147;DHT22;27815;43.410;11.852;2023-07-13T06:51:52;28.40;48.40
42147;DHT22;27815;43.410;11.852;2023-07-13T06:55:56;28.40;48.10
42147;DHT22;27815;43.410;11.852;2023-07-13T06:59:59;28.40;47.80
42147;DHT22;27815;43.410;11.852;2023-07-13T07:04:03;28.40;47.80
42147;DHT22;27815;43.410;11.852;2023-07-13T07:08:06;28.40;47.90
42147;DHT22;27815;43.410;11.852;2023-07-13T07:12:09;28.30;48.00
42147;DHT22;27815;43.410;11.852;2023-07-13T07:16:15;28.30;48.10
42147;DHT22;27815;43.410;11.852;2023-07-13T07:20:18;28.30;48.00
42147;DHT22;27815;43.410;11.852;2023-07-13T07:24:21;28.20;48.00
42147;DHT22;27815;43.410;11.852;2023-07-13T07:28:23;28.20;48.10
42147;DHT22;27815;43.410;11.852;2023-07-13T07:32:31;28.20;48.20
42147;DHT22;27815;43.410;11.852;2023-07-13T07:36:54;28.10;48.50
42147;DHT22;27815;43.410;11.852;2023-07-13T07:41:03;28.10;48.60
42147;DHT22;27815;43.410;11.852;2023-07-13T07:45:10;28.20;48.50
42147;DHT22;27815;43.410;11.852;2023-07-13T07:49:14;28.20;48.60
42147;DHT22;27815;43.410;11.852;2023-07-13T07:53:17;28.30;48.40
42147;DHT22;27815;43.410;11.852;2023-07-13T07:57:20;28.40;48.30
42147;DHT22;27815;43.410;11.852;2023-07-13T08:01:25;28.50;48.60
42147;DHT22;27815;43.410;11.852;2023-07-13T08:05:31;28.60;48.60
42147;DHT22;27815;43.410;11.852;2023-07-13T08:09:44;28.90;48.50
42147;DHT22;27815;43.410;11.852;2023-07-13T08:13:47;29.00;48.30
42147;DHT22;27815;43.410;11.852;2023-07-13T08:17:51;29.00;48.50
42147;DHT22;27815;43.410;11.852;2023-07-13T08:21:56;29.10;48.00
42147;DHT22;27815;43.410;11.852;2023-07-13T08:26:01;29.20;47.90
42147;DHT22;27815;43.410;11.852;2023-07-13T08:30:04;29.40;47.40
42147;DHT22;27815;43.410;11.852;2023-07-13T08:34:08;29.50;47.70
42147;DHT22;27815;43.410;11.852;2023-07-13T08:38:11;29.80;47.30
42147;DHT22;27815;43.410;11.852;2023-07-13T08:46:35;30.30;46.70
42147;DHT22;27815;43.410;11.852;2023-07-13T08:55:26;30.20;46.50
42147;DHT22;27815;43.410;11.852;2023-07-13T08:59:33;30.40;46.60
42147;DHT22;27815;43.410;11.852;2023-07-13T09:03:42;30.50;46.30
42147;DHT22;27815;43.410;11.852;2023-07-13T09:16:39;30.50;46.70
42147;DHT22;27815;43.410;11.852;2023-07-13T09:20:48;30.50;46.60
42147;DHT22;27815;43.410;11.852;2023-07-13T09:25:05;30.50;46.90
42147;DHT22;27815;43.410;11.852;2023-07-13T09:29:19;30.50;47.00
42147;DHT22;27815;43.410;11.852;2023-07-13T09:33:24;30.70;46.90
42147;DHT22;27815;43.410;11.852;2023-07-13T09:37:31;30.90;46.80
42147;DHT22;27815;43.410;11.852;2023-07-13T09:45:46;31.00;46.80
42147;DHT22;27815;43.410;11.852;2023-07-13T09:50:15;31.00;47.10
42147;DHT22;27815;43.410;11.852;2023-07-13T09:54:24;30.90;47.30
42147;DHT22;27815;43.410;11.852;2023-07-13T09:58:30;30.60;47.70
42147;DHT22;27815;43.410;11.852;2023-07-13T10:02:35;30.40;48.00
42147;DHT22;27815;43.410;11.852;2023-07-13T10:06:40;30.40;48.60
42147;DHT22;27815;43.410;11.852;2023-07-13T10:10:46;30.50;48.50
42147;DHT22;27815;43.410;11.852;2023-07-13T10:14:57;30.60;48.80
42147;DHT22;27815;43.410;11.852;2023-07-13T10:19:26;30.60;49.10
42147;DHT22;27815;43.410;11.852;2023-07-13T10:23:32;30.70;48.90
42147;DHT22;27815;43.410;11.852;2023-07-13T10:27:36;30.50;49.30
42147;DHT22;27815;43.410;11.852;2023-07-13T10:31:40;30.50;49.50
42147;DHT22;27815;43.410;11.852;2023-07-13T10:35:45;30.50;49.70
42147;DHT22;27815;43.410;11.852;2023-07-13T10:39:53;30.50;50.00
42147;DHT22;27815;43.410;11.852;2023-07-13T10:43:56;30.50;50.10
42147;DHT22;27815;43.410;11.852;2023-07-13T10:48:00;30.50;50.00
42147;DHT22;27815;43.410;11.852;2023-07-13T10:52:04;30.50;50.90
42147;DHT22;27815;43.410;11.852;2023-07-13T10:56:29;30.40;51.10
42147;DHT22;27815;43.410;11.852;2023-07-13T11:00:43;30.30;51.80
42147;DHT22;27815;43.410;11.852;2023-07-13T11:04:53;30.20;52.20
42147;DHT22;27815;43.410;11.852;2023-07-13T11:09:03;30.20;52.40
42147;DHT22;27815;43.410;11.852;2023-07-13T11:17:54;30.70;51.60
42147;DHT22;27815;43.410;11.852;2023-07-13T11:34:59;31.40;50.00
42147;DHT22;27815;43.410;11.852;2023-07-13T11:39:16;31.50;50.00
42147;DHT22;27815;43.410;11.852;2023-07-13T11:43:20;31.40;50.00
42147;DHT22;27815;43.410;11.852;2023-07-13T11:47:26;31.20;50.30
42147;DHT22;27815;43.410;11.852;2023-07-13T11:51:35;31.40;50.20
42147;DHT22;27815;43.410;11.852;2023-07-13T11:55:39;31.40;50.20
42147;DHT22;27815;43.410;11.852;2023-07-13T11:59:43;31.40;50.30
42147;DHT22;27815;43.410;11.852;2023-07-13T12:03:46;31.50;50.00
42147;DHT22;27815;43.410;11.852;2023-07-13T12:07:50;31.60;49.70
42147;DHT22;27815;43.410;11.852;2023-07-13T12:11:53;31.80;49.50
42147;DHT22;27815;43.410;11.852;2023-07-13T12:15:57;32.00;49.10
42147;DHT22;27815;43.410;11.852;2023-07-13T12:20:00;32.20;48.80
42147;DHT22;27815;43.410;11.852;2023-07-13T12:24:04;32.30;48.80
42147;DHT22;27815;43.410;11.852;2023-07-13T12:32:33;32.50;48.50
42147;DHT22;27815;43.410;11.852;2023-07-13T12:36:40;32.40;48.80
42147;DHT22;27815;43.410;11.852;2023-07-13T12:40:49;32.30;48.90
42147;DHT22;27815;43.410;11.852;2023-07-13T12:45:17;32.40;49.00
42147;DHT22;27815;43.410;11.852;2023-07-13T12:49:24;32.80;48.30
42147;DHT22;27815;43.410;11.852;2023-07-13T12:53:30;32.80;48.20
42147;DHT22;27815;43.410;11.852;2023-07-13T12:57:39;32.70;48.40
42147;DHT22;27815;43.410;11.852;2023-07-13T13:01:42;32.90;48.00
42147;DHT22;27815;43.410;11.852;2023-07-13T13:05:45;33.10;47.80
42147;DHT22;27815;43.410;11.852;2023-07-13T13:09:48;33.20;47.70
42147;DHT22;27815;43.410;11.852;2023-07-13T13:13:52;33.20;47.60
42147;DHT22;27815;43.410;11.852;2023-07-13T13:17:56;33.30;47.60
42147;DHT22;27815;43.410;11.852;2023-07-13T13:22:01;33.20;47.60
42147;DHT22;27815;43.410;11.852;2023-07-13T13:26:12;33.10;48.00
42147;DHT22;27815;43.410;11.852;2023-07-13T13:30:17;33.00;48.20
42147;DHT22;27815;43.410;11.852;2023-07-13T13:34:21;33.20;48.20
42147;DHT22;27815;43.410;11.852;2023-07-13T13:38:27;33.30;48.10
42147;DHT22;27815;43.410;11.852;2023-07-13T13:42:30;33.20;48.30
42147;DHT22;27815;43.410;11.852;2023-07-13T13:46:33;33.10;48.30
42147;DHT22;27815;43.410;11.852;2023-07-13T13:50:36;33.00;48.40
42147;DHT22;27815;43.410;11.852;2023-07-13T13:54:39;33.00;48.10
42147;DHT22;27815;43.410;11.852;2023-07-13T13:58:43;33.00;48.00
42147;DHT22;27815;43.410;11.852;2023-07-13T14:02:48;32.90;48.00
42147;DHT22;27815;43.410;11.852;2023-07-13T14:06:53;32.80;48.10
42147;DHT22;27815;43.410;11.852;2023-07-13T14:10:57;33.10;48.00
42147;DHT22;27815;43.410;11.852;2023-07-13T14:15:01;33.30;47.40
42147;DHT22;27815;43.410;11.852;2023-07-13T14:19:03;33.40;47.20
42147;DHT22;27815;43.410;11.852;2023-07-13T14:23:06;33.30;47.30
42147;DHT22;27815;43.410;11.852;2023-07-13T14:27:10;33.40;47.50
42147;DHT22;27815;43.410;11.852;2023-07-13T14:31:15;33.50;47.70
42147;DHT22;27815;43.410;11.852;2023-07-13T14:35:21;33.70;47.40
42147;DHT22;27815;43.410;11.852;2023-07-13T14:39:26;33.80;47.40
42147;DHT22;27815;43.410;11.852;2023-07-13T14:43:29;33.50;47.70
42147;DHT22;27815;43.410;11.852;2023-07-13T14:47:32;33.50;48.00
42147;DHT22;27815;43.410;11.852;2023-07-13T14:51:35;33.80;47.80
42147;DHT22;27815;43.410;11.852;2023-07-13T14:55:38;33.90;48.10
42147;DHT22;27815;43.410;11.852;2023-07-13T14:59:41;33.60;48.40
42147;DHT22;27815;43.410;11.852;2023-07-13T15:03:49;33.70;48.30
42147;DHT22;27815;43.410;11.852;2023-07-13T15:07:54;33.60;48.30
42147;DHT22;27815;43.410;11.852;2023-07-13T15:11:57;33.50;48.40
42147;DHT22;27815;43.410;11.852;2023-07-13T15:16:01;33.50;48.40
42147;DHT22;27815;43.410;11.852;2023-07-13T15:20:12;33.60;48.30
42147;DHT22;27815;43.410;11.852;2023-07-13T15:24:18;33.70;48.20
42147;DHT22;27815;43.410;11.852;2023-07-13T15:28:20;33.80;48.50
42147;DHT22;27815;43.410;11.852;2023-07-13T15:32:23;33.70;48.30
42147;DHT22;27815;43.410;11.852;2023-07-13T15:36:27;33.80;48.00
42147;DHT22;27815;43.410;11.852;2023-07-13T15:40:30;34.00;47.60
42147;DHT22;27815;43.410;11.852;2023-07-13T15:44:38;34.10;47.50
42147;DHT22;27815;43.410;11.852;2023-07-13T15:48:41;34.40;46.80
42147;DHT22;27815;43.410;11.852;2023-07-13T15:52:47;34.50;45.90
42147;DHT22;27815;43.410;11.852;2023-07-13T15:56:55;34.50;46.10
42147;DHT22;27815;43.410;11.852;2023-07-13T16:00:58;34.70;45.90
42147;DHT22;27815;43.410;11.852;2023-07-13T16:05:01;35.00;45.30
42147;DHT22;27815;43.410;11.852;2023-07-13T16:09:04;35.50;44.80
42147;DHT22;27815;43.410;11.852;2023-07-13T16:13:16;35.90;44.10
42147;DHT22;27815;43.410;11.852;2023-07-13T16:17:19;35.90;43.60
42147;DHT22;27815;43.410;11.852;2023-07-13T16:21:25;36.30;43.00
42147;DHT22;27815;43.410;11.852;2023-07-13T16:25:29;36.40;42.80
42147;DHT22;27815;43.410;11.852;2023-07-13T16:29:33;36.40;43.00
42147;DHT22;27815;43.410;11.852;2023-07-13T16:33:36;36.30;42.60
42147;DHT22;27815;43.410;11.852;2023-07-13T16:37:39;36.20;42.60
42147;DHT22;27815;43.410;11.852;2023-07-13T16:42:03;36.60;41.70
42147;DHT22;27815;43.410;11.852;2023-07-13T16:46:11;37.30;40.50
42147;DHT22;27815;43.410;11.852;2023-07-13T16:50:20;38.00;39.40
42147;DHT22;27815;43.410;11.852;2023-07-13T16:54:23;38.70;38.50
42147;DHT22;27815;43.410;11.852;2023-07-13T16:58:30;38.90;38.30
42147;DHT22;27815;43.410;11.852;2023-07-13T17:02:35;38.90;38.30
42147;DHT22;27815;43.410;11.852;2023-07-13T17:06:38;39.50;37.70
42147;DHT22;27815;43.410;11.852;2023-07-13T17:10:43;39.70;37.30
42147;DHT22;27815;43.410;11.852;2023-07-13T17:14:55;39.60;37.60
42147;DHT22;27815;43.410;11.852;2023-07-13T17:18:58;39.10;37.80
42147;DHT22;27815;43.410;11.852;2023-07-13T17:23:01;38.40;38.70
42147;DHT22;27815;43.410;11.852;2023-07-13T17:27:05;38.60;38.70
42147;DHT22;27815;43.410;11.852;2023-07-13T17:31:12;38.60;38.30
42147;DHT22;27815;43.410;11.852;2023-07-13T17:35:26;38.00;38.90
42147;DHT22;27815;43.410;11.852;2023-07-13T17:39:29;37.10;40.10
42147;DHT22;27815;43.410;11.852;2023-07-13T17:43:32;36.60;40.80
42147;DHT22;27815;43.410;11.852;2023-07-13T17:47:36;36.20;41.30
42147;DHT22;27815;43.410;11.852;2023-07-13T17:51:39;36.20;41.30
42147;DHT22;27815;43.410;11.852;2023-07-13T17:55:44;35.90;41.60
42147;DHT22;27815;43.410;11.852;2023-07-13T17:59:47;35.70;41.90
42147;DHT22;27815;43.410;11.852;2023-07-13T18:03:51;35.30;42.60
42147;DHT22;27815;43.410;11.852;2023-07-13T18:07:56;34.70;43.50
42147;DHT22;27815;43.410;11.852;2023-07-13T18:12:00;34.10;44.30
42147;DHT22;27815;43.410;11.852;2023-07-13T18:16:03;33.70;44.90
42147;DHT22;27815;43.410;11.852;2023-07-13T18:20:09;33.30;45.70
42147;DHT22;27815;43.410;11.852;2023-07-13T18:24:19;32.90;46.40
42147;DHT22;27815;43.410;11.852;2023-07-13T18:28:22;32.50;47.10
42147;DHT22;27815;43.410;11.852;2023-07-13T18:32:26;32.30;47.60
42147;DHT22;27815;43.410;11.852;2023-07-13T18:36:30;32.00;48.20
42147;DHT22;27815;43.410;11.852;2023-07-13T18:40:33;31.70;49.00
42147;DHT22;27815;43.410;11.852;2023-07-13T18:44:36;31.40;49.90
42147;DHT22;27815;43.410;11.852;2023-07-13T18:48:39;31.00;50.80
42147;DHT22;27815;43.410;11.852;2023-07-13T18:52:42;30.80;51.50
42147;DHT22;27815;43.410;11.852;2023-07-13T18:56:45;30.50;52.80
42147;DHT22;27815;43.410;11.852;2023-07-13T19:00:52;30.30;53.40
42147;DHT22;27815;43.410;11.852;2023-07-13T19:05:00;30.00;54.20
42147;DHT22;27815;43.410;11.852;2023-07-13T19:09:09;29.80;54.60
42147;DHT22;27815;43.410;11.852;2023-07-13T19:13:19;29.70;55.00
42147;DHT22;27815;43.410;11.852;2023-07-13T19:17:23;29.50;55.30
42147;DHT22;27815;43.410;11.852;2023-07-13T19:21:34;29.50;55.30
42147;DHT22;27815;43.410;11.852;2023-07-13T19:25:37;29.40;55.90
42147;DHT22;27815;43.410;11.852;2023-07-13T19:29:41;29.30;56.80
42147;DHT22;27815;43.410;11.852;2023-07-13T19:33:44;29.20;57.20
42147;DHT22;27815;43.410;11.852;2023-07-13T19:37:47;29.10;57.60
42147;DHT22;27815;43.410;11.852;2023-07-13T19:41:50;29.00;58.10
42147;DHT22;27815;43.410;11.852;2023-07-13T19:45:55;29.00;58.50
42147;DHT22;27815;43.410;11.852;2023-07-13T19:49:58;28.90;58.60
42147;DHT22;27815;43.410;11.852;2023-07-13T19:54:12;28.90;58.50
42147;DHT22;27815;43.410;11.852;2023-07-13T19:58:15;28.90;58.60
42147;DHT22;27815;43.410;11.852;2023-07-13T20:02:20;28.80;58.80
42147;DHT22;27815;43.410;11.852;2023-07-13T20:06:28;28.70;59.10
42147;DHT22;27815;43.410;11.852;2023-07-13T20:10:31;28.70;60.30
42147;DHT22;27815;43.410;11.852;2023-07-13T20:14:37;28.60;60.70
42147;DHT22;27815;43.410;11.852;2023-07-13T20:18:43;28.60;60.50
42147;DHT22;27815;43.410;11.852;2023-07-13T20:22:50;28.50;61.50
42147;DHT22;27815;43.410;11.852;2023-07-13T20:26:53;28.50;62.10
42147;DHT22;27815;43.410;11.852;2023-07-13T20:30:56;28.50;61.80
42147;DHT22;27815;43.410;11.852;2023-07-13T20:35:00;28.40;61.90
42147;DHT22;27815;43.410;11.852;2023-07-13T20:39:03;28.40;62.50
42147;DHT22;27815;43.410;11.852;2023-07-13T20:43:05;28.30;62.80
42147;DHT22;27815;43.410;11.852;2023-07-13T20:47:13;28.20;63.70
42147;DHT22;27815;43.410;11.852;2023-07-13T20:51:18;28.10;63.50
42147;DHT22;27815;43.410;11.852;2023-07-13T20:55:24;28.10;64.00
42147;DHT22;27815;43.410;11.852;2023-07-13T20:59:27;28.00;64.90
42147;DHT22;27815;43.410;11.852;2023-07-13T21:03:30;27.90;65.00
42147;DHT22;27815;43.410;11.852;2023-07-13T21:07:33;27.80;65.30
42147;DHT22;27815;43.410;11.852;2023-07-13T21:11:36;27.80;65.20
42147;DHT22;27815;43.410;11.852;2023-07-13T21:15:40;27.80;65.20
42147;DHT22;27815;43.410;11.852;2023-07-13T21:19:44;27.80;65.30
42147;DHT22;27815;43.410;11.852;2023-07-13T21:23:48;27.80;65.20
42147;DHT22;27815;43.410;11.852;2023-07-13T21:27:56;27.80;65.00
42147;DHT22;27815;43.410;11.852;2023-07-13T21:31:59;27.70;65.20
42147;DHT22;27815;43.410;11.852;2023-07-13T21:36:03;27.70;65.70
42147;DHT22;27815;43.410;11.852;2023-07-13T21:40:15;27.70;66.00
42147;DHT22;27815;43.410;11.852;2023-07-13T21:44:28;27.60;66.50
42147;DHT22;27815;43.410;11.852;2023-07-13T21:48:32;27.50;67.00
42147;DHT22;27815;43.410;11.852;2023-07-13T21:52:35;27.50;67.30
42147;DHT22;27815;43.410;11.852;2023-07-13T21:56:38;27.50;67.60
42147;DHT22;27815;43.410;11.852;2023-07-13T22:00:41;27.40;67.60
42147;DHT22;27815;43.410;11.852;2023-07-13T22:04:44;27.40;67.80
42147;DHT22;27815;43.410;11.852;2023-07-13T22:08:48;27.40;68.60
42147;DHT22;27815;43.410;11.852;2023-07-13T22:12:51;27.30;68.90
42147;DHT22;27815;43.410;11.852;2023-07-13T22:16:55;27.30;68.80
42147;DHT22;27815;43.410;11.852;2023-07-13T22:20:58;27.30;68.70
42147;DHT22;27815;43.410;11.852;2023-07-13T22:25:01;27.30;69.00
42147;DHT22;27815;43.410;11.852;2023-07-13T22:29:23;27.30;68.70
42147;DHT22;27815;43.410;11.852;2023-07-13T22:33:27;27.30;69.20
42147;DHT22;27815;43.410;11.852;2023-07-13T22:37:29;27.20;69.10
42147;DHT22;27815;43.410;11.852;2023-07-13T22:41:32;27.20;69.00
42147;DHT22;27815;43.410;11.852;2023-07-13T22:45:35;27.20;69.10
42147;DHT22;27815;43.410;11.852;2023-07-13T22:49:38;27.20;69.20
42147;DHT22;27815;43.410;11.852;2023-07-13T22:53:41;27.20;69.60
42147;DHT22;27815;43.410;11.852;2023-07-13T22:57:47;27.10;69.90
42147;DHT22;27815;43.410;11.852;2023-07-13T23:01:52;27.10;70.00
42147;DHT22;27815;43.410;11.852;2023-07-13T23:05:55;27.00;70.10
42147;DHT22;27815;43.410;11.852;2023-07-13T23:09:58;27.00;70.10
42147;DHT22;27815;43.410;11.852;2023-07-13T23:14:10;27.00;69.90
42147;DHT22;27815;43.410;11.852;2023-07-13T23:18:17;27.00;70.20
42147;DHT22;27815;43.410;11.852;2023-07-13T23:22:25;27.00;70.20
42147;DHT22;27815;43.410;11.852;2023-07-13T23:26:29;27.00;70.20
42147;DHT22;27815;43.410;11.852;2023-07-13T23:30:32;27.00;70.00
42147;DHT22;27815;43.410;11.852;2023-07-13T23:34:35;27.00;69.80
42147;DHT22;27815;43.410;11.852;2023-07-13T23:38:38;27.10;69.60
42147;DHT22;27815;43.410;11.852;2023-07-13T23:42:41;27.10;69.50
42147;DHT22;27815;43.410;11.852;2023-07-13T23:46:49;27.10;69.40
42147;DHT22;27815;43.410;11.852;2023-07-13T23:50:53;27.10;69.20
42147;DHT22;27815;43.410;11.852;2023-07-13T23:54:56;27.10;69.00
42147;DHT22;27815;43.410;11.852;2023-07-13T23:58:59;27.20;68.90
